Time;durP1;ratioP1;P1;durP2;ratioP2;P2;SDS_P1;SDS_P2;PMS_P1;PMS_P2;Temp;Humidity;BMP_temperature;BMP_pressure;BME280_temperature;BME280_humidity;BME280_pressure;Samples;Min_cycle;Max_cycle;Signal;HPM_P1;HPM_P2
2023/08/30 00:00:55;;;;;;;19.30;17.02;;;13.90;99.90;;;;;;7393847;19;20078;-72
2023/08/30 00:03:25;;;;;;;20.00;17.77;;;13.90;99.90;;;;;;7401681;19;20408;-71
2023/08/30 00:05:55;;;;;;;22.58;17.55;;;13.90;99.90;;;;;;7392949;19;20010;-72
2023/08/30 00:08:25;;;;;;;21.42;18.15;;;13.90;99.90;;;;;;7381650;19;20014;-73
2023/08/30 00:10:58;;;;;;;25.05;19.60;;;13.90;99.90;;;;;;7377284;19;20550;-73
2023/08/30 00:13:28;;;;;;;21.65;19.20;;;13.90;99.90;;;;;;7381550;19;20477;-73
2023/08/30 00:15:58;;;;;;;20.77;18.27;;;13.80;99.90;;;;;;7382014;19;20014;-72
2023/08/30 00:18:28;;;;;;;29.02;19.52;;;13.80;99.90;;;;;;7381921;19;20015;-73
2023/08/30 00:20:59;;;;;;;22.10;18.25;;;13.80;99.90;;;;;;7378760;19;20082;-73
2023/08/30 00:23:29;;;;;;;21.42;18.45;;;13.80;99.90;;;;;;7381004;19;20011;-74
2023/08/30 00:26:01;;;;;;;20.15;18.15;;;13.90;99.90;;;;;;7385788;19;20047;-71
2023/08/30 00:28:31;;;;;;;20.33;17.92;;;13.80;99.90;;;;;;7367870;19;20035;-72
2023/08/30 00:31:01;;;;;;;21.05;18.63;;;13.80;99.90;;;;;;7386099;19;20338;-72
2023/08/30 00:33:31;;;;;;;22.10;19.63;;;13.80;99.90;;;;;;7376722;19;20011;-72
2023/08/30 00:36:02;;;;;;;22.65;19.95;;;13.90;99.90;;;;;;7380835;19;20010;-72
2023/08/30 00:38:32;;;;;;;22.90;19.63;;;13.80;99.90;;;;;;7381289;19;20499;-72
2023/08/30 00:41:04;;;;;;;23.98;19.77;;;13.80;99.90;;;;;;7375617;19;20482;-74
2023/08/30 00:43:34;;;;;;;20.83;18.50;;;13.80;99.90;;;;;;7377717;19;20584;-73
2023/08/30 00:46:05;;;;;;;23.67;19.92;;;13.70;99.90;;;;;;7377525;19;20014;-71
2023/08/30 00:48:35;;;;;;;22.67;20.02;;;13.70;99.90;;;;;;7378316;19;20475;-72
2023/08/30 00:51:05;;;;;;;22.65;20.27;;;13.70;99.90;;;;;;7379158;19;20530;-72
2023/08/30 00:53:35;;;;;;;22.50;19.77;;;13.70;99.90;;;;;;7378883;19;20078;-73
2023/08/30 00:56:08;;;;;;;23.35;20.48;;;13.70;99.90;;;;;;7376756;19;20010;-73
2023/08/30 00:58:38;;;;;;;25.65;20.63;;;13.70;99.90;;;;;;7379454;19;20094;-72
2023/08/30 01:01:09;;;;;;;23.10;20.65;;;13.70;99.90;;;;;;7379896;19;20027;-73
2023/08/30 01:03:39;;;;;;;21.25;19.00;;;13.60;99.90;;;;;;7376285;19;20010;-72
2023/08/30 01:06:10;;;;;;;23.67;19.67;;;13.60;99.90;;;;;;7377712;19;20022;-71
2023/08/30 01:08:40;;;;;;;21.83;19.52;;;13.60;99.90;;;;;;7377953;19;20125;-71
2023/08/30 01:11:18;;;;;;;22.33;18.90;;;13.60;99.90;;;;;;7379184;19;20016;-72
2023/08/30 01:13:55;;;;;;;21.23;18.88;;;13.60;99.90;;;;;;7375416;19;20468;-71
2023/08/30 01:16:26;;;;;;;21.27;18.73;;;13.50;99.90;;;;;;7378720;19;20022;-73
2023/08/30 01:18:58;;;;;;;21.58;17.88;;;13.50;99.90;;;;;;7384580;19;20003;-73
2023/08/30 01:21:39;;;;;;;20.38;18.23;;;13.50;99.90;;;;;;7375420;19;20022;-69
2023/08/30 01:24:16;;;;;;;21.38;19.08;;;13.50;99.90;;;;;;7379981;19;20037;-71
2023/08/30 01:27:05;;;;;;;22.48;18.60;;;13.50;99.90;;;;;;7375201;19;20010;-73
2023/08/30 01:29:37;;;;;;;21.42;18.20;;;13.40;99.90;;;;;;6866246;19;2004778;-73
2023/08/30 01:32:10;;;;;;;22.33;19.23;;;13.40;99.90;;;;;;7385686;19;20018;-74
2023/08/30 01:34:42;;;;;;;22.30;18.85;;;13.40;99.90;;;;;;7388573;19;20018;-73
2023/08/30 01:37:13;;;;;;;23.02;19.13;;;13.30;99.90;;;;;;7386631;19;20078;-74
2023/08/30 01:39:45;;;;;;;21.75;19.45;;;13.30;99.90;;;;;;7387477;19;20014;-73
2023/08/30 01:42:21;;;;;;;20.75;18.60;;;13.30;99.90;;;;;;7391246;19;20011;-73
2023/08/30 01:44:54;;;;;;;21.50;19.20;;;13.30;99.90;;;;;;7381053;19;20025;-73
2023/08/30 01:47:26;;;;;;;22.88;18.55;;;13.30;99.90;;;;;;7376185;19;20521;-74
2023/08/30 01:49:57;;;;;;;20.92;18.65;;;13.20;99.90;;;;;;7377507;19;20028;-73
2023/08/30 01:52:28;;;;;;;20.65;18.45;;;13.10;99.90;;;;;;7378211;19;20019;-73
2023/08/30 01:54:59;;;;;;;21.58;18.10;;;13.00;99.90;;;;;;7377238;19;20003;-74
2023/08/30 01:57:32;;;;;;;22.88;18.88;;;13.00;99.90;;;;;;7384813;19;20014;-72
2023/08/30 02:00:02;;;;;;;22.27;18.00;;;13.10;99.90;;;;;;7383001;19;20014;-72
2023/08/30 02:02:33;;;;;;;21.50;19.05;;;13.00;99.90;;;;;;7381811;19;20006;-71
2023/08/30 02:05:04;;;;;;;23.70;19.42;;;13.00;99.90;;;;;;7377862;19;20102;-71
2023/08/30 02:07:39;;;;;;;23.98;18.83;;;13.00;99.90;;;;;;7375930;19;20475;-70
2023/08/30 02:10:12;;;;;;;20.88;18.48;;;13.10;99.90;;;;;;7375528;19;20011;-70
2023/08/30 02:12:48;;;;;;;23.92;19.48;;;13.00;99.90;;;;;;7376157;19;20025;-72
2023/08/30 02:15:20;;;;;;;23.15;20.05;;;13.00;99.90;;;;;;7378595;19;20045;-72
2023/08/30 02:17:51;;;;;;;23.95;19.48;;;13.10;99.90;;;;;;7378205;19;20011;-72
2023/08/30 02:20:22;;;;;;;23.15;19.83;;;13.00;99.90;;;;;;7383001;19;20463;-73
2023/08/30 02:22:52;;;;;;;25.05;20.35;;;13.00;99.90;;;;;;7382670;19;20002;-73
2023/08/30 02:25:23;;;;;;;25.65;20.65;;;13.00;99.90;;;;;;7375238;19;20077;-73
2023/08/30 02:27:56;;;;;;;25.98;20.98;;;12.90;99.90;;;;;;7376069;19;20019;-73
2023/08/30 02:30:26;;;;;;;27.67;21.85;;;12.90;99.90;;;;;;7376355;19;20027;-73
2023/08/30 02:32:56;;;;;;;24.73;21.63;;;12.90;99.90;;;;;;7375384;19;20016;-72
2023/08/30 02:35:26;;;;;;;27.40;22.60;;;13.00;99.90;;;;;;7375678;19;20007;-73
2023/08/30 02:37:56;;;;;;;27.17;23.33;;;13.00;99.90;;;;;;7377662;19;20499;-73
2023/08/30 02:40:26;;;;;;;29.95;22.52;;;13.00;99.90;;;;;;7373227;19;20028;-72
2023/08/30 02:42:58;;;;;;;25.75;21.95;;;12.90;99.90;;;;;;7373954;19;20018;-72
2023/08/30 02:45:28;;;;;;;27.73;21.00;;;12.90;99.90;;;;;;7377318;19;20085;-72
2023/08/30 02:47:59;;;;;;;24.33;20.35;;;12.90;99.90;;;;;;7373849;19;20016;-72
2023/08/30 02:50:29;;;;;;;25.80;21.20;;;12.90;99.90;;;;;;7377010;19;20007;-71
2023/08/30 02:52:58;;;;;;;27.35;21.73;;;12.90;99.90;;;;;;7375475;19;20082;-72
2023/08/30 02:55:28;;;;;;;24.77;21.60;;;12.90;99.90;;;;;;7379850;19;20463;-72
2023/08/30 02:58:01;;;;;;;27.02;21.55;;;12.90;99.90;;;;;;7376810;19;20031;-72
2023/08/30 03:00:31;;;;;;;25.55;21.08;;;12.90;99.90;;;;;;7373224;19;20089;-73
2023/08/30 03:03:02;;;;;;;25.00;21.33;;;13.00;99.90;;;;;;7376075;19;20109;-72
2023/08/30 03:05:32;;;;;;;25.38;21.30;;;12.90;99.90;;;;;;7376948;19;20006;-72
2023/08/30 03:08:02;;;;;;;26.50;21.70;;;13.00;99.90;;;;;;7376409;19;20002;-72
2023/08/30 03:10:32;;;;;;;28.45;21.08;;;13.00;99.90;;;;;;7375921;19;20048;-71
2023/08/30 03:13:05;;;;;;;26.52;21.50;;;13.00;99.90;;;;;;7375294;19;20534;-72
2023/08/30 03:15:35;;;;;;;29.02;21.45;;;13.10;99.90;;;;;;7376795;19;20496;-73
2023/08/30 03:18:05;;;;;;;23.35;20.85;;;13.10;99.90;;;;;;7380405;19;20019;-72
2023/08/30 03:20:36;;;;;;;24.88;20.42;;;13.10;99.90;;;;;;7374232;19;20006;-72
2023/08/30 03:23:06;;;;;;;32.85;21.90;;;13.20;99.90;;;;;;7374114;19;20010;-73
2023/08/30 03:25:36;;;;;;;27.77;20.67;;;13.20;99.90;;;;;;7377461;19;20014;-73
2023/08/30 03:28:09;;;;;;;26.98;20.73;;;13.20;99.90;;;;;;7375657;19;20197;-73
2023/08/30 03:30:39;;;;;;;25.85;20.65;;;13.20;99.90;;;;;;7362206;19;20010;-73
2023/08/30 03:33:09;;;;;;;24.15;20.25;;;13.30;99.90;;;;;;7376118;19;20024;-72
2023/08/30 03:35:39;;;;;;;21.52;18.90;;;13.30;99.90;;;;;;7375581;19;20007;-72
2023/08/30 03:38:09;;;;;;;21.27;18.98;;;13.30;99.90;;;;;;7378795;19;20470;-73
2023/08/30 03:40:40;;;;;;;21.38;18.60;;;13.30;99.90;;;;;;7374524;19;20023;-73
2023/08/30 03:43:12;;;;;;;21.15;18.15;;;13.30;99.90;;;;;;7378595;19;20450;-72
2023/08/30 03:45:42;;;;;;;21.80;17.38;;;13.40;99.90;;;;;;7379049;19;20046;-71
2023/08/30 03:48:12;;;;;;;23.42;17.48;;;13.40;99.90;;;;;;7380621;19;20014;-71
2023/08/30 03:50:42;;;;;;;22.48;18.25;;;13.40;99.90;;;;;;7377694;19;20018;-73
2023/08/30 03:53:12;;;;;;;23.67;18.33;;;13.30;99.90;;;;;;7385975;19;20027;-71
2023/08/30 03:55:43;;;;;;;20.23;17.90;;;13.30;99.90;;;;;;7370553;19;20017;-72
2023/08/30 03:58:15;;;;;;;23.92;18.63;;;13.30;99.90;;;;;;7379302;19;20027;-73
2023/08/30 04:00:46;;;;;;;22.33;18.35;;;13.30;99.90;;;;;;7378500;19;20014;-72
2023/08/30 04:03:17;;;;;;;20.80;17.95;;;13.30;99.90;;;;;;7380203;19;20077;-73
2023/08/30 04:05:47;;;;;;;19.85;17.20;;;13.40;99.90;;;;;;7381740;19;20424;-73
2023/08/30 04:08:17;;;;;;;22.27;17.98;;;13.30;99.90;;;;;;7380672;19;20865;-71
2023/08/30 04:10:49;;;;;;;21.10;18.70;;;13.40;99.90;;;;;;7379498;19;20017;-71
2023/08/30 04:13:21;;;;;;;19.65;17.15;;;13.40;99.90;;;;;;7386896;19;20014;-72
2023/08/30 04:15:51;;;;;;;20.50;17.05;;;13.30;99.90;;;;;;7359864;19;20038;-72
2023/08/30 04:18:21;;;;;;;23.10;19.05;;;13.30;99.90;;;;;;7384330;19;20048;-72
2023/08/30 04:20:51;;;;;;;18.30;16.40;;;13.40;99.90;;;;;;7385337;19;20034;-74
2023/08/30 04:23:21;;;;;;;19.52;17.25;;;13.40;99.90;;;;;;7383167;19;20086;-72
2023/08/30 04:25:51;;;;;;;18.70;16.42;;;13.40;99.90;;;;;;7383671;19;20101;-73
2023/08/30 04:28:23;;;;;;;18.90;16.90;;;13.40;99.90;;;;;;7381518;19;20074;-73
2023/08/30 04:30:56;;;;;;;17.38;15.57;;;13.40;99.90;;;;;;7379369;19;20014;-72
2023/08/30 04:33:26;;;;;;;18.15;15.98;;;13.50;99.90;;;;;;7380887;19;20483;-72
2023/08/30 04:35:56;;;;;;;17.17;15.23;;;13.40;99.90;;;;;;7380566;19;20107;-72
2023/08/30 04:38:26;;;;;;;20.95;17.55;;;13.40;99.90;;;;;;7378939;19;20014;-74
2023/08/30 04:41:00;;;;;;;19.42;17.38;;;13.40;99.90;;;;;;7379647;19;20562;-72
2023/08/30 04:43:32;;;;;;;19.60;17.50;;;13.40;99.90;;;;;;7383498;19;20027;-72
2023/08/30 04:46:02;;;;;;;18.48;16.48;;;13.40;99.90;;;;;;7379038;19;20270;-71
2023/08/30 04:48:32;;;;;;;18.67;16.67;;;13.40;99.90;;;;;;7378361;19;20397;-71
2023/08/30 04:51:04;;;;;;;17.95;15.98;;;13.40;99.90;;;;;;7379004;19;20352;-72
2023/08/30 04:53:34;;;;;;;22.15;17.02;;;13.40;99.90;;;;;;7381291;19;20002;-72
2023/08/30 04:56:13;;;;;;;19.10;16.38;;;13.30;99.90;;;;;;7386789;19;20088;-72
2023/08/30 04:58:45;;;;;;;19.67;17.30;;;13.40;99.90;;;;;;7365396;19;20165;-71
2023/08/30 05:01:15;;;;;;;21.52;17.27;;;13.50;99.90;;;;;;7382231;19;20040;-72
2023/08/30 05:03:45;;;;;;;20.98;17.25;;;13.40;99.90;;;;;;7387037;19;20018;-71
2023/08/30 05:06:16;;;;;;;21.02;18.45;;;13.40;99.90;;;;;;7377534;19;20035;-72
2023/08/30 05:08:46;;;;;;;21.70;17.80;;;13.40;99.90;;;;;;7375832;19;20058;-73
2023/08/30 05:11:16;;;;;;;21.65;18.15;;;13.40;99.90;;;;;;7377953;19;20017;-73
2023/08/30 05:13:48;;;;;;;22.00;16.80;;;13.40;99.90;;;;;;7382162;19;20066;-73
2023/08/30 05:16:18;;;;;;;17.60;15.80;;;13.40;99.90;;;;;;7380804;19;20081;-74
2023/08/30 05:18:49;;;;;;;18.75;16.75;;;13.30;99.90;;;;;;7379024;19;20007;-72
2023/08/30 05:21:18;;;;;;;19.92;15.70;;;13.40;99.90;;;;;;7382078;19;20304;-73
2023/08/30 05:23:48;;;;;;;21.63;17.52;;;13.40;99.90;;;;;;7385650;19;20011;-73
2023/08/30 05:26:19;;;;;;;21.13;16.67;;;13.50;99.90;;;;;;7387451;19;20014;-73
2023/08/30 05:28:52;;;;;;;20.35;17.20;;;13.50;99.90;;;;;;7379042;19;20010;-71
2023/08/30 05:31:22;;;;;;;23.88;17.25;;;13.60;99.90;;;;;;7379352;19;20405;-72
2023/08/30 05:33:52;;;;;;;19.20;16.42;;;13.50;99.90;;;;;;7382836;19;20114;-72
2023/08/30 05:36:22;;;;;;;21.13;17.42;;;13.50;99.90;;;;;;7389982;19;20067;-73
2023/08/30 05:38:51;;;;;;;20.60;17.60;;;13.50;99.90;;;;;;7382616;19;20031;-73
2023/08/30 05:41:21;;;;;;;23.20;17.02;;;13.50;99.90;;;;;;7379765;19;20031;-72
2023/08/30 05:43:54;;;;;;;19.75;16.50;;;13.60;99.90;;;;;;7382181;19;20006;-72
2023/08/30 05:46:24;;;;;;;19.02;15.90;;;13.70;99.90;;;;;;7384278;19;20022;-73
2023/08/30 05:48:54;;;;;;;24.17;17.05;;;13.70;99.90;;;;;;7379370;19;20014;-73
2023/08/30 05:51:24;;;;;;;20.55;16.80;;;13.70;99.90;;;;;;7377271;19;20578;-71
2023/08/30 05:53:54;;;;;;;19.02;16.20;;;13.80;99.90;;;;;;7381301;19;20053;-73
2023/08/30 05:56:24;;;;;;;18.13;15.13;;;13.80;99.90;;;;;;7382785;19;20007;-72
2023/08/30 05:58:56;;;;;;;17.77;14.55;;;13.80;99.90;;;;;;7374309;19;20128;-72
2023/08/30 06:01:27;;;;;;;18.42;14.27;;;13.90;99.90;;;;;;7375231;19;20333;-72
2023/08/30 06:03:57;;;;;;;19.27;14.55;;;13.90;99.90;;;;;;7375331;19;20014;-70
2023/08/30 06:06:27;;;;;;;16.15;14.45;;;13.90;99.90;;;;;;7376034;19;20045;-71
2023/08/30 06:08:57;;;;;;;22.25;14.00;;;13.90;99.90;;;;;;7371519;19;20010;-72
2023/08/30 06:11:27;;;;;;;16.67;13.35;;;14.00;99.90;;;;;;7378133;19;20082;-72
2023/08/30 06:14:00;;;;;;;17.77;13.73;;;14.00;99.90;;;;;;7372743;19;20637;-72
2023/08/30 06:16:30;;;;;;;18.15;14.15;;;14.10;99.90;;;;;;7369363;19;20475;-71
2023/08/30 06:19:00;;;;;;;18.98;12.70;;;14.10;96.00;;;;;;7375082;19;20505;-71
2023/08/30 06:21:30;;;;;;;13.43;12.02;;;14.10;96.70;;;;;;7374331;19;20006;-72
2023/08/30 06:24:00;;;;;;;18.90;12.50;;;14.30;93.60;;;;;;7373794;19;20085;-70
2023/08/30 06:26:30;;;;;;;16.55;12.60;;;14.30;86.10;;;;;;7377191;19;20011;-71
2023/08/30 06:29:02;;;;;;;13.48;11.85;;;14.30;78.70;;;;;;7373252;19;20019;-70
2023/08/30 06:31:34;;;;;;;16.73;12.30;;;14.30;80.70;;;;;;7374640;19;20058;-72
2023/08/30 06:34:04;;;;;;;15.02;12.32;;;14.30;71.80;;;;;;7373238;19;20010;-71
2023/08/30 06:36:34;;;;;;;12.43;11.23;;;14.50;76.90;;;;;;7370642;19;20035;-71
2023/08/30 06:39:04;;;;;;;18.88;15.95;;;14.60;72.90;;;;;;7374192;19;20014;-72
2023/08/30 06:41:34;;;;;;;13.82;12.30;;;14.70;66.90;;;;;;7373717;19;20487;-72
2023/08/30 06:44:07;;;;;;;13.25;11.23;;;14.60;52.00;;;;;;7376794;19;20083;-71
2023/08/30 06:46:37;;;;;;;14.10;11.95;;;14.70;56.40;;;;;;7374318;19;20006;-72
2023/08/30 06:49:09;;;;;;;12.10;10.77;;;14.90;48.70;;;;;;7374522;19;20017;-72
2023/08/30 06:51:39;;;;;;;12.13;10.52;;;14.90;48.50;;;;;;7372678;19;20014;-72
2023/08/30 06:54:09;;;;;;;10.10;9.10;;;14.90;39.20;;;;;;7372434;19;20506;-72
2023/08/30 06:56:39;;;;;;;12.55;9.48;;;15.20;36.60;;;;;;7372860;19;20048;-72
2023/08/30 06:59:11;;;;;;;9.85;8.85;;;15.10;23.30;;;;;;7375825;19;20015;-71
2023/08/30 07:01:41;;;;;;;10.75;9.10;;;15.20;23.60;;;;;;7373612;19;20018;-71
2023/08/30 07:04:11;;;;;;;10.15;9.18;;;15.30;22.40;;;;;;7375548;19;20015;-72
2023/08/30 07:06:41;;;;;;;11.15;9.55;;;15.30;16.10;;;;;;7373566;19;20078;-72
2023/08/30 07:09:11;;;;;;;12.23;9.10;;;15.20;17.20;;;;;;7370934;19;20015;-72
2023/08/30 07:11:41;;;;;;;11.93;10.00;;;15.40;25.10;;;;;;7372913;19;20501;-72
2023/08/30 07:14:14;;;;;;;11.82;9.55;;;15.30;16.10;;;;;;7373379;19;20014;-71
2023/08/30 07:16:44;;;;;;;11.27;9.70;;;15.30;10.90;;;;;;7368592;19;20057;-72
2023/08/30 07:19:25;;;;;;;9.85;8.85;;;15.40;18.00;;;;;;7376962;19;20002;-72
2023/08/30 07:21:55;;;;;;;10.95;8.15;;;15.40;15.10;;;;;;7381232;19;20017;-72
2023/08/30 07:24:25;;;;;;;9.65;8.27;;;15.50;12.70;;;;;;7379261;19;20002;-72
2023/08/30 07:26:55;;;;;;;9.45;8.27;;;15.50;12.10;;;;;;7380058;19;20010;-72
2023/08/30 07:29:27;;;;;;;12.40;8.43;;;15.60;16.60;;;;;;7379372;19;20025;-73
2023/08/30 07:31:57;;;;;;;13.05;9.88;;;15.60;13.30;;;;;;7380187;19;20045;-72
2023/08/30 07:34:27;;;;;;;9.73;7.85;;;15.50;9.70;;;;;;7379409;19;20029;-72
2023/08/30 07:36:58;;;;;;;9.25;8.10;;;15.70;15.40;;;;;;7381644;19;20009;-72
2023/08/30 07:39:28;;;;;;;8.68;7.88;;;15.50;7.40;;;;;;7377500;19;20344;-71
2023/08/30 07:41:58;;;;;;;11.38;8.88;;;15.70;7.70;;;;;;7374508;19;20102;-71
2023/08/30 07:44:30;;;;;;;10.13;9.13;;;15.70;6.80;;;;;;7381597;19;20015;-71
2023/08/30 07:47:00;;;;;;;11.57;9.25;;;15.60;5.50;;;;;;7380002;19;20471;-71
2023/08/30 07:49:30;;;;;;;12.57;9.50;;;15.70;11.30;;;;;;7381446;19;20015;-72
2023/08/30 07:52:00;;;;;;;11.65;9.10;;;15.70;12.80;;;;;;7379046;19;20049;-73
2023/08/30 07:54:32;;;;;;;11.40;8.63;;;15.70;10.10;;;;;;7378656;19;20788;-73
2023/08/30 07:57:02;;;;;;;10.23;8.77;;;15.70;7.20;;;;;;7379682;19;20014;-73
2023/08/30 07:59:35;;;;;;;13.75;9.88;;;15.80;7.10;;;;;;7373717;19;20089;-73
2023/08/30 08:02:07;;;;;;;14.80;8.88;;;15.80;9.20;;;;;;7380881;19;20030;-71
2023/08/30 08:04:38;;;;;;;10.30;9.15;;;15.90;10.50;;;;;;7377289;19;20479;-73
2023/08/30 08:07:07;;;;;;;13.50;9.80;;;15.90;7.60;;;;;;7381562;19;20495;-71
2023/08/30 08:09:38;;;;;;;11.13;9.95;;;16.00;7.60;;;;;;7380592;19;20530;-72
2023/08/30 08:12:08;;;;;;;10.52;9.30;;;16.10;6.20;;;;;;7381918;19;20082;-74
2023/08/30 08:14:40;;;;;;;11.93;9.00;;;16.00;1.10;;;;;;7382323;19;20566;-71
2023/08/30 08:17:10;;;;;;;9.45;8.40;;;15.80;1.00;;;;;;7386588;19;20014;-72
2023/08/30 08:19:42;;;;;;;10.10;8.23;;;15.90;1.00;;;;;;7379288;19;20014;-72
2023/08/30 08:22:13;;;;;;;9.43;8.45;;;16.00;1.00;;;;;;7380978;19;20011;-72
2023/08/30 08:24:43;;;;;;;9.82;8.05;;;16.40;1.00;;;;;;7384780;19;20020;-73
2023/08/30 08:27:14;;;;;;;9.20;7.80;;;16.30;1.00;;;;;;7380571;19;20014;-72
2023/08/30 08:29:46;;;;;;;10.25;7.68;;;16.30;1.00;;;;;;7379951;19;20018;-73
2023/08/30 08:32:16;;;;;;;10.98;7.70;;;16.40;1.00;;;;;;7381702;19;20070;-72
2023/08/30 08:34:46;;;;;;;10.77;7.75;;;16.60;1.00;;;;;;7381392;19;20011;-72
2023/08/30 08:37:16;;;;;;;9.15;7.47;;;16.50;1.00;;;;;;7385864;19;20376;-68
2023/08/30 08:39:46;;;;;;;9.93;6.88;;;16.60;1.00;;;;;;7379679;19;20002;-71
2023/08/30 08:42:19;;;;;;;11.07;6.90;;;16.40;1.00;;;;;;7378708;19;20019;-72
2023/08/30 08:44:54;;;;;;;8.02;7.15;;;16.40;1.00;;;;;;7381149;19;20003;-72
2023/08/30 08:47:24;;;;;;;10.32;6.68;;;16.40;1.00;;;;;;7376777;19;20089;-72
2023/08/30 08:49:54;;;;;;;8.60;6.70;;;16.60;1.00;;;;;;7376880;19;20466;-72
2023/08/30 08:52:24;;;;;;;8.35;6.90;;;16.90;1.00;;;;;;7381109;19;20522;-73
2023/08/30 08:55:03;;;;;;;7.13;6.28;;;17.10;1.00;;;;;;6868992;19;2004740;-74
2023/08/30 08:57:33;;;;;;;7.47;6.68;;;17.40;1.00;;;;;;7383009;19;20015;-74
2023/08/30 09:00:08;;;;;;;8.60;5.80;;;17.40;1.00;;;;;;7379723;19;20037;-74
2023/08/30 09:02:38;;;;;;;6.85;5.25;;;17.40;1.00;;;;;;7380820;19;20022;-73
2023/08/30 09:05:09;;;;;;;7.38;5.53;;;17.70;1.00;;;;;;7379442;19;20523;-73
2023/08/30 09:07:40;;;;;;;7.20;5.30;;;17.70;1.00;;;;;;7379967;19;20441;-72
2023/08/30 09:10:10;;;;;;;6.78;4.95;;;17.70;1.00;;;;;;7378905;19;20014;-73
2023/08/30 09:12:40;;;;;;;6.57;4.78;;;17.90;1.00;;;;;;7380158;19;20019;-74
2023/08/30 09:15:15;;;;;;;6.90;5.15;;;17.80;1.00;;;;;;7379572;19;20684;-72
2023/08/30 09:17:46;;;;;;;7.60;4.72;;;18.00;1.00;;;;;;7379685;19;20544;-73
2023/08/30 09:20:19;;;;;;;5.75;4.53;;;18.30;1.00;;;;;;7378519;19;20010;-73
2023/08/30 09:22:50;;;;;;;6.53;4.85;;;18.40;1.00;;;;;;7376528;19;20007;-74
2023/08/30 09:25:27;;;;;;;5.63;4.82;;;18.50;1.00;;;;;;7379330;19;20014;-74
2023/08/30 09:28:00;;;;;;;6.88;4.90;;;18.60;1.00;;;;;;7380622;19;20078;-74
2023/08/30 09:30:33;;;;;;;5.88;4.32;;;18.50;1.00;;;;;;7373014;19;20014;-73
2023/08/30 09:33:05;;;;;;;5.43;4.47;;;18.70;1.00;;;;;;7377613;19;20011;-74
2023/08/30 09:35:42;;;;;;;5.45;4.13;;;18.70;1.00;;;;;;7373937;19;20014;-75
2023/08/30 09:38:19;;;;;;;4.75;3.88;;;18.70;1.00;;;;;;7373262;19;20118;-71
2023/08/30 09:40:49;;;;;;;9.90;4.47;;;18.80;1.00;;;;;;7373781;19;20026;-74
2023/08/30 09:43:22;;;;;;;5.63;4.15;;;18.80;1.00;;;;;;7372879;19;20014;-73
2023/08/30 09:45:54;;;;;;;9.68;4.60;;;19.00;1.00;;;;;;7375439;19;20385;-73
2023/08/30 09:48:30;;;;;;;6.88;4.47;;;18.90;1.00;;;;;;7374578;19;20013;-74
2023/08/30 09:51:02;;;;;;;4.53;4.00;;;19.20;1.00;;;;;;7375394;19;20747;-75
2023/08/30 09:53:36;;;;;;;5.03;3.90;;;19.30;1.00;;;;;;7383801;19;20437;-77
2023/08/30 09:56:14;;;;;;;8.38;3.92;;;19.20;1.00;;;;;;7373469;19;20026;-74
2023/08/30 09:58:45;;;;;;;4.30;3.30;;;19.50;1.00;;;;;;7374286;19;20118;-74
2023/08/30 10:01:17;;;;;;;5.35;3.58;;;19.90;1.00;;;;;;7373400;19;20010;-73
2023/08/30 10:03:48;;;;;;;5.85;3.47;;;19.80;1.00;;;;;;7373362;19;20017;-74
2023/08/30 10:06:18;;;;;;;4.20;3.63;;;19.70;1.00;;;;;;7374612;19;20040;-75
2023/08/30 10:08:51;;;;;;;4.53;3.53;;;19.40;1.00;;;;;;7372929;19;20074;-74
2023/08/30 10:11:21;;;;;;;3.47;3.13;;;19.60;1.00;;;;;;7353181;19;20077;-74
2023/08/30 10:13:53;;;;;;;4.75;3.20;;;19.40;1.00;;;;;;7372714;19;20082;-74
2023/08/30 10:16:28;;;;;;;5.25;3.33;;;19.30;1.00;;;;;;7371101;19;20014;-72
2023/08/30 10:19:06;;;;;;;3.17;2.88;;;19.50;1.00;;;;;;7373643;19;20019;-74
2023/08/30 10:21:38;;;;;;;4.00;2.78;;;19.60;1.00;;;;;;7066622;19;2004266;-75
2023/08/30 10:24:11;;;;;;;3.17;2.78;;;19.90;1.00;;;;;;7371774;19;20024;-73
2023/08/30 10:27:03;;;;;;;3.78;2.70;;;20.00;1.00;;;;;;6959995;19;2004685;-74
2023/08/30 10:29:35;;;;;;;2.92;2.45;;;19.70;1.00;;;;;;7367144;19;20045;-74
2023/08/30 10:32:09;;;;;;;3.22;2.25;;;19.80;1.00;;;;;;7364943;19;20510;-72
2023/08/30 10:34:39;;;;;;;4.68;1.88;;;20.40;1.00;;;;;;7373142;19;20015;-73
2023/08/30 10:37:10;;;;;;;3.08;2.45;;;20.20;1.00;;;;;;7353025;19;20014;-72
2023/08/30 10:39:42;;;;;;;2.45;2.10;;;19.30;1.00;;;;;;7371379;19;20020;-74
2023/08/30 10:42:13;;;;;;;2.95;2.30;;;19.80;1.00;;;;;;7372162;19;20173;-74
2023/08/30 10:44:52;;;;;;;3.45;2.33;;;20.10;1.00;;;;;;7268805;19;2004113;-74
2023/08/30 10:47:44;;;;;;;2.85;1.83;;;20.00;1.00;;;;;;6759459;19;2005269;-74
2023/08/30 10:50:15;;;;;;;2.42;2.22;;;20.40;1.00;;;;;;7371718;19;20007;-73
2023/08/30 10:52:57;;;;;;;2.67;2.05;;;20.10;1.00;;;;;;7373012;19;20039;-73
2023/08/30 10:55:27;;;;;;;4.53;2.13;;;19.60;1.00;;;;;;7272062;19;2003599;-74
2023/08/30 10:58:02;;;;;;;3.20;2.58;;;19.80;1.00;;;;;;7380093;19;20010;-74
2023/08/30 11:00:35;;;;;;;3.92;2.47;;;19.60;1.00;;;;;;7361066;19;20073;-74
2023/08/30 11:03:14;;;;;;;3.58;2.58;;;19.90;1.00;;;;;;7383947;19;20073;-75
2023/08/30 11:05:44;;;;;;;3.40;2.40;;;19.40;1.00;;;;;;7383440;19;20025;-75
2023/08/30 11:08:14;;;;;;;2.78;2.40;;;19.70;1.00;;;;;;7389366;19;20022;-74
2023/08/30 11:10:44;;;;;;;2.75;2.20;;;19.40;1.00;;;;;;7387109;19;20380;-74
2023/08/30 11:13:17;;;;;;;3.90;2.38;;;19.40;1.00;;;;;;7388710;19;20364;-74
2023/08/30 11:15:47;;;;;;;3.50;2.33;;;18.80;1.00;;;;;;7389992;19;20011;-74
2023/08/30 11:18:24;;;;;;;5.30;2.05;;;19.50;1.00;;;;;;7388266;19;20018;-74
2023/08/30 11:21:00;;;;;;;3.97;2.50;;;19.60;1.00;;;;;;7388654;19;20074;-72
2023/08/30 11:23:30;;;;;;;4.72;2.72;;;19.20;1.00;;;;;;7388944;19;20020;-75
2023/08/30 11:26:00;;;;;;;3.17;2.88;;;19.10;1.00;;;;;;7388955;19;20082;-76
2023/08/30 11:28:30;;;;;;;3.83;3.15;;;18.90;1.00;;;;;;7389745;19;20081;-76
2023/08/30 11:31:00;;;;;;;6.95;3.10;;;18.80;1.00;;;;;;7387751;19;20029;-72
2023/08/30 11:33:32;;;;;;;7.05;3.72;;;18.40;1.00;;;;;;7388108;19;20014;-74
2023/08/30 11:36:02;;;;;;;3.88;3.08;;;18.40;1.00;;;;;;7384747;19;20015;-74
2023/08/30 11:38:32;;;;;;;4.07;2.80;;;18.20;1.00;;;;;;7385707;19;20040;-74
2023/08/30 11:41:02;;;;;;;6.10;3.20;;;18.20;1.00;;;;;;7382828;19;20531;-74
2023/08/30 11:43:32;;;;;;;4.70;3.22;;;18.30;1.00;;;;;;7382542;19;20478;-75
2023/08/30 11:46:03;;;;;;;5.05;3.20;;;18.50;1.00;;;;;;7386102;19;20026;-75
2023/08/30 11:48:36;;;;;;;4.05;3.00;;;18.50;1.00;;;;;;7384428;19;20394;-75
2023/08/30 11:51:06;;;;;;;4.75;2.70;;;18.50;1.00;;;;;;7383197;19;20014;-74
2023/08/30 11:53:37;;;;;;;3.92;3.38;;;18.50;1.00;;;;;;7386355;19;20461;-73
2023/08/30 11:56:08;;;;;;;4.80;3.00;;;18.20;1.00;;;;;;7388574;19;20094;-75
2023/08/30 11:58:38;;;;;;;4.97;3.33;;;18.00;1.00;;;;;;7385420;19;20094;-75
2023/08/30 12:01:09;;;;;;;6.85;3.47;;;18.20;1.00;;;;;;7383244;19;20039;-74
2023/08/30 12:03:42;;;;;;;5.45;3.20;;;18.50;1.00;;;;;;7385435;19;20017;-76
2023/08/30 12:06:14;;;;;;;6.47;3.17;;;18.60;1.00;;;;;;7389146;19;20014;-74
2023/08/30 12:08:44;;;;;;;3.08;2.75;;;18.70;1.00;;;;;;7392930;19;20118;-74
2023/08/30 12:11:21;;;;;;;3.20;2.90;;;18.70;1.00;;;;;;7395310;19;20042;-74
2023/08/30 12:13:51;;;;;;;5.18;3.47;;;18.70;1.00;;;;;;7395036;19;20074;-74
2023/08/30 12:16:25;;;;;;;3.97;3.35;;;18.60;1.00;;;;;;7396155;19;20010;-74
2023/08/30 12:18:58;;;;;;;4.25;3.40;;;18.50;1.00;;;;;;7391645;19;20011;-75
2023/08/30 12:21:28;;;;;;;4.03;3.60;;;18.40;1.00;;;;;;7393258;19;20018;-74
2023/08/30 12:24:03;;;;;;;4.20;3.40;;;18.40;1.00;;;;;;7397238;19;20107;-74
2023/08/30 12:26:37;;;;;;;3.58;3.03;;;18.20;1.00;;;;;;7394144;19;20039;-74
2023/08/30 12:29:07;;;;;;;6.10;4.55;;;18.20;1.00;;;;;;7396350;19;20094;-74
2023/08/30 12:31:37;;;;;;;5.03;4.53;;;18.40;1.00;;;;;;7395077;19;20379;-75
2023/08/30 12:34:10;;;;;;;5.07;4.43;;;18.50;1.00;;;;;;7392972;19;20034;-74
2023/08/30 12:36:40;;;;;;;6.50;4.32;;;18.70;1.00;;;;;;7395441;19;20087;-75
2023/08/30 12:39:10;;;;;;;5.50;4.18;;;18.50;1.00;;;;;;7396565;19;20471;-75
2023/08/30 12:41:42;;;;;;;4.32;3.92;;;18.60;1.00;;;;;;7391249;19;20020;-76
2023/08/30 12:44:12;;;;;;;4.28;3.90;;;18.80;1.00;;;;;;7396109;19;20026;-75
2023/08/30 12:46:42;;;;;;;4.90;3.60;;;18.90;1.00;;;;;;7396272;19;20074;-77
2023/08/30 12:49:15;;;;;;;5.57;4.82;;;18.90;1.00;;;;;;7393915;19;20028;-75
2023/08/30 12:51:45;;;;;;;6.53;5.60;;;19.30;1.00;;;;;;7392144;19;20007;-75
2023/08/30 12:54:15;;;;;;;5.28;3.15;;;19.40;1.00;;;;;;7393835;19;20014;-74
2023/08/30 12:56:45;;;;;;;4.03;3.47;;;19.60;1.00;;;;;;7395993;19;20097;-73
2023/08/30 12:59:15;;;;;;;4.43;2.63;;;19.80;1.00;;;;;;7392441;19;20531;-75